sensor_id;sensor_type;location;lat;lon;timestamp;P1;durP1;ratioP1;P2;durP2;ratioP2
76439;SDS011;65274;44.982;20.060;2023-11-21T00:00:14;133.80;;;69.93;;
76439;SDS011;65274;44.982;20.060;2023-11-21T00:40:13;147.65;;;69.50;;
76439;SDS011;65274;44.982;20.060;2023-11-21T01:08:38;125.22;;;65.43;;
76439;SDS011;65274;44.982;20.060;2023-11-21T01:11:05;124.38;;;61.85;;
76439;SDS011;65274;44.982;20.060;2023-11-21T01:22:20;122.13;;;65.00;;
76439;SDS011;65274;44.982;20.060;2023-11-21T01:36:51;123.10;;;62.17;;
76439;SDS011;65274;44.982;20.060;2023-11-21T01:39:17;135.57;;;70.78;;
76439;SDS011;65274;44.982;20.060;2023-11-21T01:44:52;131.32;;;66.68;;
76439;SDS011;65274;44.982;20.060;2023-11-21T01:47:24;139.05;;;69.68;;
76439;SDS011;65274;44.982;20.060;2023-11-21T01:49:50;132.43;;;71.63;;
76439;SDS011;65274;44.982;20.060;2023-11-21T01:52:35;153.82;;;77.45;;
76439;SDS011;65274;44.982;20.060;2023-11-21T01:55:02;139.85;;;74.45;;
76439;SDS011;65274;44.982;20.060;2023-11-21T01:57:28;139.38;;;74.32;;
76439;SDS011;65274;44.982;20.060;2023-11-21T01:59:54;149.63;;;78.32;;
76439;SDS011;65274;44.982;20.060;2023-11-21T02:02:21;147.07;;;78.63;;
76439;SDS011;65274;44.982;20.060;2023-11-21T02:04:48;144.80;;;74.72;;
76439;SDS011;65274;44.982;20.060;2023-11-21T02:07:15;137.10;;;74.95;;
76439;SDS011;65274;44.982;20.060;2023-11-21T02:09:43;143.70;;;76.47;;
76439;SDS011;65274;44.982;20.060;2023-11-21T02:12:10;143.68;;;77.00;;
76439;SDS011;65274;44.982;20.060;2023-11-21T02:14:36;149.30;;;79.47;;
76439;SDS011;65274;44.982;20.060;2023-11-21T02:17:02;157.48;;;84.53;;
76439;SDS011;65274;44.982;20.060;2023-11-21T02:19:29;170.38;;;88.13;;
76439;SDS011;65274;44.982;20.060;2023-11-21T02:21:59;167.95;;;89.43;;
76439;SDS011;65274;44.982;20.060;2023-11-21T02:24:31;169.90;;;90.68;;
76439;SDS011;65274;44.982;20.060;2023-11-21T02:26:57;174.77;;;93.40;;
76439;SDS011;65274;44.982;20.060;2023-11-21T02:29:26;203.25;;;101.80;;
76439;SDS011;65274;44.982;20.060;2023-11-21T02:31:56;186.93;;;98.90;;
76439;SDS011;65274;44.982;20.060;2023-11-21T02:34:22;197.55;;;101.28;;
76439;SDS011;65274;44.982;20.060;2023-11-21T02:36:50;202.63;;;100.00;;
76439;SDS011;65274;44.982;20.060;2023-11-21T02:39:17;175.07;;;92.97;;
76439;SDS011;65274;44.982;20.060;2023-11-21T02:41:47;178.93;;;92.70;;
76439;SDS011;65274;44.982;20.060;2023-11-21T02:44:13;179.93;;;95.00;;
76439;SDS011;65274;44.982;20.060;2023-11-21T02:46:39;170.05;;;91.35;;
76439;SDS011;65274;44.982;20.060;2023-11-21T02:49:05;178.82;;;91.13;;
76439;SDS011;65274;44.982;20.060;2023-11-21T02:51:32;170.50;;;90.57;;
76439;SDS011;65274;44.982;20.060;2023-11-21T02:53:59;157.52;;;86.90;;
76439;SDS011;65274;44.982;20.060;2023-11-21T02:56:27;175.13;;;91.28;;
76439;SDS011;65274;44.982;20.060;2023-11-21T02:58:57;161.18;;;87.90;;
76439;SDS011;65274;44.982;20.060;2023-11-21T03:01:23;152.32;;;84.70;;
76439;SDS011;65274;44.982;20.060;2023-11-21T03:03:49;154.27;;;80.45;;
76439;SDS011;65274;44.982;20.060;2023-11-21T03:06:22;157.00;;;83.28;;
76439;SDS011;65274;44.982;20.060;2023-11-21T03:08:48;140.02;;;79.75;;
76439;SDS011;65274;44.982;20.060;2023-11-21T03:11:15;138.90;;;75.72;;
76439;SDS011;65274;44.982;20.060;2023-11-21T03:13:45;132.57;;;73.38;;
76439;SDS011;65274;44.982;20.060;2023-11-21T03:16:12;134.27;;;77.22;;
76439;SDS011;65274;44.982;20.060;2023-11-21T03:18:39;122.90;;;69.32;;
76439;SDS011;65274;44.982;20.060;2023-11-21T03:21:05;130.80;;;71.82;;
76439;SDS011;65274;44.982;20.060;2023-11-21T03:23:57;123.32;;;69.57;;
76439;SDS011;65274;44.982;20.060;2023-11-21T03:26:25;125.78;;;72.28;;
76439;SDS011;65274;44.982;20.060;2023-11-21T03:28:56;128.02;;;72.30;;
76439;SDS011;65274;44.982;20.060;2023-11-21T03:31:40;136.73;;;75.93;;
76439;SDS011;65274;44.982;20.060;2023-11-21T03:34:09;137.57;;;73.53;;
76439;SDS011;65274;44.982;20.060;2023-11-21T03:36:35;138.38;;;75.97;;
76439;SDS011;65274;44.982;20.060;2023-11-21T03:39:03;129.35;;;71.47;;
76439;SDS011;65274;44.982;20.060;2023-11-21T03:44:40;121.95;;;67.55;;
76439;SDS011;65274;44.982;20.060;2023-11-21T04:10:18;112.45;;;62.75;;
76439;SDS011;65274;44.982;20.060;2023-11-21T04:13:12;110.78;;;61.45;;
76439;SDS011;65274;44.982;20.060;2023-11-21T04:19:15;106.75;;;60.35;;
76439;SDS011;65274;44.982;20.060;2023-11-21T05:10:58;121.57;;;64.22;;
76439;SDS011;65274;44.982;20.060;2023-11-21T05:40:07;94.38;;;51.90;;
76439;SDS011;65274;44.982;20.060;2023-11-21T05:42:41;83.93;;;47.58;;
76439;SDS011;65274;44.982;20.060;2023-11-21T05:48:00;96.07;;;48.95;;
76439;SDS011;65274;44.982;20.060;2023-11-21T05:53:40;89.20;;;46.65;;
76439;SDS011;65274;44.982;20.060;2023-11-21T06:01:27;67.57;;;40.28;;
76439;SDS011;65274;44.982;20.060;2023-11-21T06:28:47;60.65;;;35.10;;
76439;SDS011;65274;44.982;20.060;2023-11-21T06:32:20;71.43;;;41.78;;
76439;SDS011;65274;44.982;20.060;2023-11-21T06:35:43;72.63;;;42.78;;
76439;SDS011;65274;44.982;20.060;2023-11-21T06:41:33;66.85;;;41.50;;
76439;SDS011;65274;44.982;20.060;2023-11-21T06:57:12;64.60;;;37.43;;
76439;SDS011;65274;44.982;20.060;2023-11-21T06:59:38;62.42;;;38.88;;
76439;SDS011;65274;44.982;20.060;2023-11-21T07:02:25;62.88;;;38.53;;
76439;SDS011;65274;44.982;20.060;2023-11-21T07:04:51;59.65;;;38.20;;
76439;SDS011;65274;44.982;20.060;2023-11-21T07:07:19;59.40;;;38.17;;
76439;SDS011;65274;44.982;20.060;2023-11-21T07:09:45;58.78;;;36.42;;
76439;SDS011;65274;44.982;20.060;2023-11-21T07:12:11;56.42;;;33.75;;
76439;SDS011;65274;44.982;20.060;2023-11-21T07:14:38;59.67;;;35.10;;
76439;SDS011;65274;44.982;20.060;2023-11-21T07:17:06;49.75;;;32.58;;
76439;SDS011;65274;44.982;20.060;2023-11-21T07:19:56;59.35;;;35.20;;
76439;SDS011;65274;44.982;20.060;2023-11-21T07:22:23;63.00;;;36.08;;
76439;SDS011;65274;44.982;20.060;2023-11-21T07:24:50;49.15;;;30.40;;
76439;SDS011;65274;44.982;20.060;2023-11-21T07:27:16;45.00;;;30.40;;
76439;SDS011;65274;44.982;20.060;2023-11-21T07:29:44;47.58;;;31.90;;
76439;SDS011;65274;44.982;20.060;2023-11-21T07:32:13;46.20;;;31.52;;
76439;SDS011;65274;44.982;20.060;2023-11-21T07:34:40;47.95;;;30.95;;
76439;SDS011;65274;44.982;20.060;2023-11-21T07:37:09;47.67;;;31.70;;
76439;SDS011;65274;44.982;20.060;2023-11-21T07:39:36;48.67;;;30.88;;
76439;SDS011;65274;44.982;20.060;2023-11-21T07:42:07;49.50;;;30.67;;
76439;SDS011;65274;44.982;20.060;2023-11-21T07:44:33;43.95;;;27.98;;
76439;SDS011;65274;44.982;20.060;2023-11-21T07:46:59;45.45;;;29.80;;
76439;SDS011;65274;44.982;20.060;2023-11-21T07:49:26;50.13;;;34.17;;
76439;SDS011;65274;44.982;20.060;2023-11-21T07:51:52;43.20;;;28.65;;
76439;SDS011;65274;44.982;20.060;2023-11-21T07:54:18;46.83;;;30.55;;
76439;SDS011;65274;44.982;20.060;2023-11-21T07:56:44;47.72;;;30.67;;
76439;SDS011;65274;44.982;20.060;2023-11-21T07:59:10;46.17;;;31.15;;
76439;SDS011;65274;44.982;20.060;2023-11-21T08:01:37;45.33;;;31.58;;
76439;SDS011;65274;44.982;20.060;2023-11-21T08:04:05;56.15;;;31.08;;
76439;SDS011;65274;44.982;20.060;2023-11-21T08:06:31;61.13;;;34.83;;
76439;SDS011;65274;44.982;20.060;2023-11-21T08:08:58;55.70;;;34.50;;
76439;SDS011;65274;44.982;20.060;2023-11-21T08:11:24;61.03;;;33.97;;
76439;SDS011;65274;44.982;20.060;2023-11-21T08:13:51;52.53;;;33.00;;
76439;SDS011;65274;44.982;20.060;2023-11-21T08:16:18;54.38;;;36.70;;
76439;SDS011;65274;44.982;20.060;2023-11-21T08:18:44;51.38;;;33.80;;
76439;SDS011;65274;44.982;20.060;2023-11-21T08:21:12;55.00;;;34.72;;
76439;SDS011;65274;44.982;20.060;2023-11-21T08:23:38;51.20;;;35.37;;
76439;SDS011;65274;44.982;20.060;2023-11-21T08:26:04;62.20;;;43.03;;
76439;SDS011;65274;44.982;20.060;2023-11-21T08:28:30;56.28;;;37.70;;
76439;SDS011;65274;44.982;20.060;2023-11-21T08:30:56;64.53;;;42.55;;
76439;SDS011;65274;44.982;20.060;2023-11-21T08:33:22;57.28;;;36.92;;
76439;SDS011;65274;44.982;20.060;2023-11-21T08:35:48;60.17;;;32.38;;
76439;SDS011;65274;44.982;20.060;2023-11-21T08:38:15;50.13;;;34.08;;
76439;SDS011;65274;44.982;20.060;2023-11-21T08:40:41;43.40;;;29.50;;
76439;SDS011;65274;44.982;20.060;2023-11-21T08:43:07;62.80;;;39.58;;
76439;SDS011;65274;44.982;20.060;2023-11-21T08:45:33;43.35;;;29.42;;
76439;SDS011;65274;44.982;20.060;2023-11-21T08:48:00;39.92;;;27.60;;
76439;SDS011;65274;44.982;20.060;2023-11-21T08:50:26;49.42;;;27.13;;
76439;SDS011;65274;44.982;20.060;2023-11-21T08:52:53;40.70;;;27.27;;
76439;SDS011;65274;44.982;20.060;2023-11-21T08:55:19;54.10;;;37.97;;
76439;SDS011;65274;44.982;20.060;2023-11-21T08:57:45;46.80;;;29.42;;
76439;SDS011;65274;44.982;20.060;2023-11-21T09:00:12;51.80;;;39.50;;
76439;SDS011;65274;44.982;20.060;2023-11-21T09:02:42;43.15;;;30.10;;
76439;SDS011;65274;44.982;20.060;2023-11-21T09:05:09;42.53;;;27.38;;
76439;SDS011;65274;44.982;20.060;2023-11-21T09:07:35;43.17;;;28.15;;
76439;SDS011;65274;44.982;20.060;2023-11-21T09:10:02;38.63;;;26.33;;
76439;SDS011;65274;44.982;20.060;2023-11-21T09:12:28;41.90;;;27.38;;
76439;SDS011;65274;44.982;20.060;2023-11-21T09:14:55;40.58;;;27.08;;
76439;SDS011;65274;44.982;20.060;2023-11-21T09:17:21;39.28;;;27.05;;
76439;SDS011;65274;44.982;20.060;2023-11-21T09:19:47;41.83;;;30.70;;
76439;SDS011;65274;44.982;20.060;2023-11-21T09:22:16;49.83;;;38.35;;
76439;SDS011;65274;44.982;20.060;2023-11-21T09:24:42;65.68;;;51.53;;
76439;SDS011;65274;44.982;20.060;2023-11-21T09:27:09;57.45;;;43.13;;
76439;SDS011;65274;44.982;20.060;2023-11-21T09:29:36;51.28;;;33.63;;
76439;SDS011;65274;44.982;20.060;2023-11-21T09:32:04;46.15;;;28.63;;
76439;SDS011;65274;44.982;20.060;2023-11-21T09:34:31;42.17;;;29.00;;
76439;SDS011;65274;44.982;20.060;2023-11-21T09:36:57;43.65;;;28.90;;
76439;SDS011;65274;44.982;20.060;2023-11-21T09:39:24;44.30;;;30.58;;
76439;SDS011;65274;44.982;20.060;2023-11-21T09:41:50;50.95;;;33.65;;
76439;SDS011;65274;44.982;20.060;2023-11-21T09:44:20;52.05;;;34.75;;
76439;SDS011;65274;44.982;20.060;2023-11-21T09:46:48;45.80;;;30.35;;
76439;SDS011;65274;44.982;20.060;2023-11-21T09:49:14;39.58;;;26.63;;
76439;SDS011;65274;44.982;20.060;2023-11-21T09:51:42;38.08;;;24.67;;
76439;SDS011;65274;44.982;20.060;2023-11-21T09:54:09;37.08;;;23.98;;
76439;SDS011;65274;44.982;20.060;2023-11-21T09:56:39;34.20;;;24.98;;
76439;SDS011;65274;44.982;20.060;2023-11-21T09:59:05;36.75;;;24.02;;
76439;SDS011;65274;44.982;20.060;2023-11-21T10:01:35;35.00;;;25.25;;
76439;SDS011;65274;44.982;20.060;2023-11-21T10:04:05;38.35;;;25.77;;
76439;SDS011;65274;44.982;20.060;2023-11-21T10:06:36;43.10;;;26.75;;
76439;SDS011;65274;44.982;20.060;2023-11-21T10:09:03;45.42;;;28.67;;
76439;SDS011;65274;44.982;20.060;2023-11-21T10:11:36;41.25;;;28.85;;
76439;SDS011;65274;44.982;20.060;2023-11-21T10:14:03;52.37;;;30.87;;
76439;SDS011;65274;44.982;20.060;2023-11-21T10:16:30;53.95;;;33.53;;
76439;SDS011;65274;44.982;20.060;2023-11-21T10:18:57;51.05;;;32.47;;
76439;SDS011;65274;44.982;20.060;2023-11-21T10:21:23;43.33;;;29.80;;
76439;SDS011;65274;44.982;20.060;2023-11-21T10:23:50;44.10;;;30.15;;
76439;SDS011;65274;44.982;20.060;2023-11-21T10:26:18;42.10;;;28.20;;
76439;SDS011;65274;44.982;20.060;2023-11-21T10:28:57;39.00;;;25.02;;
76439;SDS011;65274;44.982;20.060;2023-11-21T10:31:24;49.42;;;32.58;;
76439;SDS011;65274;44.982;20.060;2023-11-21T10:33:51;53.90;;;34.08;;
76439;SDS011;65274;44.982;20.060;2023-11-21T10:36:27;33.97;;;24.50;;
76439;SDS011;65274;44.982;20.060;2023-11-21T10:38:53;40.55;;;26.08;;
76439;SDS011;65274;44.982;20.060;2023-11-21T10:41:20;46.67;;;28.85;;
76439;SDS011;65274;44.982;20.060;2023-11-21T10:43:46;43.78;;;29.25;;
76439;SDS011;65274;44.982;20.060;2023-11-21T10:46:14;34.65;;;23.17;;
76439;SDS011;65274;44.982;20.060;2023-11-21T10:48:41;42.13;;;27.33;;
76439;SDS011;65274;44.982;20.060;2023-11-21T10:51:07;48.67;;;29.42;;
76439;SDS011;65274;44.982;20.060;2023-11-21T10:53:38;37.88;;;24.02;;
76439;SDS011;65274;44.982;20.060;2023-11-21T10:56:06;39.65;;;26.90;;
76439;SDS011;65274;44.982;20.060;2023-11-21T10:58:35;39.33;;;25.35;;
76439;SDS011;65274;44.982;20.060;2023-11-21T11:01:01;36.78;;;25.00;;
76439;SDS011;65274;44.982;20.060;2023-11-21T11:03:29;32.97;;;23.17;;
76439;SDS011;65274;44.982;20.060;2023-11-21T11:05:58;54.30;;;35.65;;
76439;SDS011;65274;44.982;20.060;2023-11-21T11:08:24;37.05;;;25.27;;
76439;SDS011;65274;44.982;20.060;2023-11-21T11:10:52;43.78;;;31.42;;
76439;SDS011;65274;44.982;20.060;2023-11-21T11:13:19;49.20;;;32.45;;
76439;SDS011;65274;44.982;20.060;2023-11-21T11:15:49;41.03;;;28.95;;
76439;SDS011;65274;44.982;20.060;2023-11-21T11:18:15;53.10;;;35.00;;
76439;SDS011;65274;44.982;20.060;2023-11-21T11:20:42;41.65;;;29.73;;
76439;SDS011;65274;44.982;20.060;2023-11-21T11:28:14;37.08;;;26.80;;
76439;SDS011;65274;44.982;20.060;2023-11-21T11:30:43;47.13;;;30.65;;
76439;SDS011;65274;44.982;20.060;2023-11-21T11:35:46;32.78;;;24.35;;
76439;SDS011;65274;44.982;20.060;2023-11-21T11:38:15;34.55;;;23.38;;
76439;SDS011;65274;44.982;20.060;2023-11-21T11:40:45;36.42;;;26.40;;
76439;SDS011;65274;44.982;20.060;2023-11-21T11:43:12;57.28;;;41.80;;
76439;SDS011;65274;44.982;20.060;2023-11-21T11:45:38;33.00;;;22.65;;
76439;SDS011;65274;44.982;20.060;2023-11-21T11:50:32;30.38;;;21.80;;
76439;SDS011;65274;44.982;20.060;2023-11-21T11:53:33;34.40;;;22.98;;
76439;SDS011;65274;44.982;20.060;2023-11-21T11:56:14;48.28;;;31.83;;
76439;SDS011;65274;44.982;20.060;2023-11-21T11:58:43;55.58;;;40.35;;
76439;SDS011;65274;44.982;20.060;2023-11-21T12:01:11;43.63;;;29.60;;
76439;SDS011;65274;44.982;20.060;2023-11-21T12:03:38;43.67;;;31.20;;
76439;SDS011;65274;44.982;20.060;2023-11-21T12:06:05;45.80;;;30.83;;
76439;SDS011;65274;44.982;20.060;2023-11-21T12:08:35;41.40;;;30.48;;
76439;SDS011;65274;44.982;20.060;2023-11-21T12:11:02;49.30;;;33.85;;
76439;SDS011;65274;44.982;20.060;2023-11-21T12:13:28;52.92;;;32.83;;
76439;SDS011;65274;44.982;20.060;2023-11-21T12:15:55;58.75;;;39.70;;
76439;SDS011;65274;44.982;20.060;2023-11-21T12:18:21;43.92;;;29.98;;
76439;SDS011;65274;44.982;20.060;2023-11-21T12:20:47;49.45;;;32.67;;
76439;SDS011;65274;44.982;20.060;2023-11-21T12:23:15;43.58;;;29.85;;
76439;SDS011;65274;44.982;20.060;2023-11-21T12:25:43;41.40;;;27.38;;
76439;SDS011;65274;44.982;20.060;2023-11-21T12:28:10;46.13;;;30.35;;
76439;SDS011;65274;44.982;20.060;2023-11-21T12:30:37;51.17;;;31.20;;
76439;SDS011;65274;44.982;20.060;2023-11-21T12:35:34;66.90;;;41.28;;
76439;SDS011;65274;44.982;20.060;2023-11-21T12:38:01;76.97;;;48.58;;
76439;SDS011;65274;44.982;20.060;2023-11-21T12:40:31;103.47;;;62.15;;
76439;SDS011;65274;44.982;20.060;2023-11-21T12:42:58;97.20;;;63.08;;
76439;SDS011;65274;44.982;20.060;2023-11-21T12:45:26;929.53;;;516.17;;
76439;SDS011;65274;44.982;20.060;2023-11-21T12:47:57;550.38;;;321.02;;
76439;SDS011;65274;44.982;20.060;2023-11-21T12:50:31;371.35;;;191.38;;
76439;SDS011;65274;44.982;20.060;2023-11-21T12:53:05;117.47;;;70.85;;
76439;SDS011;65274;44.982;20.060;2023-11-21T12:55:36;80.18;;;59.42;;
76439;SDS011;65274;44.982;20.060;2023-11-21T12:58:46;70.63;;;40.78;;
76439;SDS011;65274;44.982;20.060;2023-11-21T13:01:19;69.90;;;42.22;;
76439;SDS011;65274;44.982;20.060;2023-11-21T13:03:53;75.07;;;47.65;;
76439;SDS011;65274;44.982;20.060;2023-11-21T13:09:05;88.97;;;48.95;;
76439;SDS011;65274;44.982;20.060;2023-11-21T13:11:39;82.75;;;47.58;;
76439;SDS011;65274;44.982;20.060;2023-11-21T13:14:12;68.95;;;40.33;;
76439;SDS011;65274;44.982;20.060;2023-11-21T13:16:40;77.70;;;42.42;;
76439;SDS011;65274;44.982;20.060;2023-11-21T13:19:11;70.47;;;43.45;;
76439;SDS011;65274;44.982;20.060;2023-11-21T13:21:38;70.28;;;43.30;;
76439;SDS011;65274;44.982;20.060;2023-11-21T13:24:17;81.95;;;45.65;;
76439;SDS011;65274;44.982;20.060;2023-11-21T13:26:55;86.60;;;47.28;;
76439;SDS011;65274;44.982;20.060;2023-11-21T13:29:41;82.70;;;45.80;;
76439;SDS011;65274;44.982;20.060;2023-11-21T13:32:15;88.15;;;45.67;;
76439;SDS011;65274;44.982;20.060;2023-11-21T13:35:01;93.05;;;53.35;;
76439;SDS011;65274;44.982;20.060;2023-11-21T13:37:40;98.80;;;52.60;;
76439;SDS011;65274;44.982;20.060;2023-11-21T13:40:26;142.90;;;78.40;;
76439;SDS011;65274;44.982;20.060;2023-11-21T13:42:53;167.77;;;96.22;;
76439;SDS011;65274;44.982;20.060;2023-11-21T13:45:23;120.03;;;67.70;;
76439;SDS011;65274;44.982;20.060;2023-11-21T13:47:50;111.20;;;65.97;;
76439;SDS011;65274;44.982;20.060;2023-11-21T13:50:18;114.95;;;65.35;;
76439;SDS011;65274;44.982;20.060;2023-11-21T13:53:10;143.80;;;87.75;;
76439;SDS011;65274;44.982;20.060;2023-11-21T13:56:14;137.80;;;80.18;;
76439;SDS011;65274;44.982;20.060;2023-11-21T13:59:00;109.30;;;61.00;;
76439;SDS011;65274;44.982;20.060;2023-11-21T14:01:37;106.53;;;63.67;;
76439;SDS011;65274;44.982;20.060;2023-11-21T14:04:27;151.13;;;89.90;;
76439;SDS011;65274;44.982;20.060;2023-11-21T14:06:55;115.40;;;63.00;;
76439;SDS011;65274;44.982;20.060;2023-11-21T14:09:29;108.93;;;62.30;;
76439;SDS011;65274;44.982;20.060;2023-11-21T14:12:37;131.23;;;69.10;;
76439;SDS011;65274;44.982;20.060;2023-11-21T14:15:50;117.97;;;64.25;;
76439;SDS011;65274;44.982;20.060;2023-11-21T14:18:33;145.23;;;79.03;;
76439;SDS011;65274;44.982;20.060;2023-11-21T14:21:38;125.00;;;68.72;;
76439;SDS011;65274;44.982;20.060;2023-11-21T14:24:18;115.50;;;57.20;;
76439;SDS011;65274;44.982;20.060;2023-11-21T14:27:24;118.40;;;61.22;;
76439;SDS011;65274;44.982;20.060;2023-11-21T14:30:10;133.77;;;70.70;;
76439;SDS011;65274;44.982;20.060;2023-11-21T14:32:40;136.98;;;77.72;;
76439;SDS011;65274;44.982;20.060;2023-11-21T14:35:31;134.00;;;62.15;;
76439;SDS011;65274;44.982;20.060;2023-11-21T14:37:59;125.35;;;67.13;;
76439;SDS011;65274;44.982;20.060;2023-11-21T14:40:45;116.47;;;56.30;;
76439;SDS011;65274;44.982;20.060;2023-11-21T14:53:40;147.73;;;63.83;;
76439;SDS011;65274;44.982;20.060;2023-11-21T14:56:19;135.40;;;67.70;;
76439;SDS011;65274;44.982;20.060;2023-11-21T14:58:53;142.68;;;70.90;;
76439;SDS011;65274;44.982;20.060;2023-11-21T15:01:25;168.13;;;80.95;;
76439;SDS011;65274;44.982;20.060;2023-11-21T15:04:11;137.80;;;65.82;;
76439;SDS011;65274;44.982;20.060;2023-11-21T15:06:58;115.72;;;57.08;;
76439;SDS011;65274;44.982;20.060;2023-11-21T15:09:25;128.98;;;62.88;;
76439;SDS011;65274;44.982;20.060;2023-11-21T15:12:14;124.50;;;61.88;;
76439;SDS011;65274;44.982;20.060;2023-11-21T15:14:41;125.68;;;59.95;;
76439;SDS011;65274;44.982;20.060;2023-11-21T15:17:28;109.88;;;53.42;;
76439;SDS011;65274;44.982;20.060;2023-11-21T15:19:57;106.07;;;53.17;;
76439;SDS011;65274;44.982;20.060;2023-11-21T15:22:25;127.07;;;53.97;;
76439;SDS011;65274;44.982;20.060;2023-11-21T15:24:52;119.60;;;67.27;;
76439;SDS011;65274;44.982;20.060;2023-11-21T15:27:21;131.93;;;63.85;;
76439;SDS011;65274;44.982;20.060;2023-11-21T15:29:47;108.55;;;54.05;;
76439;SDS011;65274;44.982;20.060;2023-11-21T15:32:15;91.30;;;47.07;;
76439;SDS011;65274;44.982;20.060;2023-11-21T15:34:41;118.20;;;56.25;;
76439;SDS011;65274;44.982;20.060;2023-11-21T15:37:09;150.85;;;73.10;;
76439;SDS011;65274;44.982;20.060;2023-11-21T15:39:37;123.38;;;58.55;;
76439;SDS011;65274;44.982;20.060;2023-11-21T15:42:04;126.43;;;66.43;;
76439;SDS011;65274;44.982;20.060;2023-11-21T15:44:32;117.28;;;56.70;;
76439;SDS011;65274;44.982;20.060;2023-11-21T15:46:58;105.32;;;51.33;;
76439;SDS011;65274;44.982;20.060;2023-11-21T15:49:25;120.57;;;54.42;;
76439;SDS011;65274;44.982;20.060;2023-11-21T15:51:52;122.70;;;53.30;;
76439;SDS011;65274;44.982;20.060;2023-11-21T15:54:25;104.05;;;50.92;;
76439;SDS011;65274;44.982;20.060;2023-11-21T15:56:56;108.55;;;49.95;;
76439;SDS011;65274;44.982;20.060;2023-11-21T15:59:24;100.93;;;48.17;;
76439;SDS011;65274;44.982;20.060;2023-11-21T16:01:59;114.85;;;49.75;;
76439;SDS011;65274;44.982;20.060;2023-11-21T16:04:28;113.45;;;49.83;;
76439;SDS011;65274;44.982;20.060;2023-11-21T16:06:57;110.82;;;48.78;;
76439;SDS011;65274;44.982;20.060;2023-11-21T16:09:32;120.05;;;50.85;;
76439;SDS011;65274;44.982;20.060;2023-11-21T16:12:02;108.70;;;49.28;;
76439;SDS011;65274;44.982;20.060;2023-11-21T16:14:29;110.13;;;51.58;;
76439;SDS011;65274;44.982;20.060;2023-11-21T16:17:24;131.18;;;54.80;;
76439;SDS011;65274;44.982;20.060;2023-11-21T16:19:51;148.55;;;59.90;;
76439;SDS011;65274;44.982;20.060;2023-11-21T16:22:17;138.10;;;55.38;;
76439;SDS011;65274;44.982;20.060;2023-11-21T16:24:44;102.93;;;49.05;;
76439;SDS011;65274;44.982;20.060;2023-11-21T16:27:10;108.90;;;59.13;;
76439;SDS011;65274;44.982;20.060;2023-11-21T16:29:37;95.07;;;46.95;;
76439;SDS011;65274;44.982;20.060;2023-11-21T16:32:03;88.65;;;43.20;;
76439;SDS011;65274;44.982;20.060;2023-11-21T16:34:30;124.90;;;51.03;;
76439;SDS011;65274;44.982;20.060;2023-11-21T16:39:24;120.57;;;48.67;;
76439;SDS011;65274;44.982;20.060;2023-11-21T16:41:50;120.32;;;51.95;;
76439;SDS011;65274;44.982;20.060;2023-11-21T16:44:18;124.13;;;58.38;;
76439;SDS011;65274;44.982;20.060;2023-11-21T16:46:49;115.28;;;48.42;;
76439;SDS011;65274;44.982;20.060;2023-11-21T16:49:17;127.13;;;61.40;;
76439;SDS011;65274;44.982;20.060;2023-11-21T16:51:44;122.75;;;54.95;;
76439;SDS011;65274;44.982;20.060;2023-11-21T16:54:13;115.53;;;50.38;;
76439;SDS011;65274;44.982;20.060;2023-11-21T16:56:44;103.72;;;48.75;;
76439;SDS011;65274;44.982;20.060;2023-11-21T16:59:17;100.53;;;47.10;;
76439;SDS011;65274;44.982;20.060;2023-11-21T17:02:02;84.05;;;42.53;;
76439;SDS011;65274;44.982;20.060;2023-11-21T17:04:30;101.32;;;47.38;;
76439;SDS011;65274;44.982;20.060;2023-11-21T17:06:59;102.50;;;47.90;;
76439;SDS011;65274;44.982;20.060;2023-11-21T17:28:10;96.07;;;48.97;;
76439;SDS011;65274;44.982;20.060;2023-11-21T17:33:17;101.82;;;51.20;;
76439;SDS011;65274;44.982;20.060;2023-11-21T17:36:22;131.90;;;66.55;;
76439;SDS011;65274;44.982;20.060;2023-11-21T17:39:09;132.02;;;66.30;;
76439;SDS011;65274;44.982;20.060;2023-11-21T17:44:35;137.32;;;72.20;;
76439;SDS011;65274;44.982;20.060;2023-11-21T17:47:01;117.53;;;70.40;;
76439;SDS011;65274;44.982;20.060;2023-11-21T17:49:27;154.73;;;79.00;;
76439;SDS011;65274;44.982;20.060;2023-11-21T17:55:16;98.03;;;51.75;;
76439;SDS011;65274;44.982;20.060;2023-11-21T17:58:06;111.00;;;56.40;;
76439;SDS011;65274;44.982;20.060;2023-11-21T18:06:44;115.68;;;56.78;;
76439;SDS011;65274;44.982;20.060;2023-11-21T18:12:16;138.25;;;67.50;;
76439;SDS011;65274;44.982;20.060;2023-11-21T18:15:19;133.07;;;60.28;;
76439;SDS011;65274;44.982;20.060;2023-11-21T18:18:24;167.43;;;78.45;;
76439;SDS011;65274;44.982;20.060;2023-11-21T18:23:34;137.45;;;65.55;;
76439;SDS011;65274;44.982;20.060;2023-11-21T18:26:24;132.00;;;61.17;;
76439;SDS011;65274;44.982;20.060;2023-11-21T18:29:30;125.57;;;57.85;;
76439;SDS011;65274;44.982;20.060;2023-11-21T18:32:06;152.60;;;71.90;;
76439;SDS011;65274;44.982;20.060;2023-11-21T18:34:35;132.55;;;62.83;;
76439;SDS011;65274;44.982;20.060;2023-11-21T18:37:02;132.45;;;65.68;;
76439;SDS011;65274;44.982;20.060;2023-11-21T18:39:28;131.30;;;62.90;;
76439;SDS011;65274;44.982;20.060;2023-11-21T18:41:56;128.32;;;58.97;;
76439;SDS011;65274;44.982;20.060;2023-11-21T18:44:22;120.05;;;54.88;;
76439;SDS011;65274;44.982;20.060;2023-11-21T18:46:56;113.47;;;52.58;;
76439;SDS011;65274;44.982;20.060;2023-11-21T18:49:28;114.70;;;54.45;;
76439;SDS011;65274;44.982;20.060;2023-11-21T18:52:02;126.55;;;59.13;;
76439;SDS011;65274;44.982;20.060;2023-11-21T18:54:29;136.48;;;58.45;;
76439;SDS011;65274;44.982;20.060;2023-11-21T18:56:59;127.25;;;55.97;;
76439;SDS011;65274;44.982;20.060;2023-11-21T18:59:26;115.97;;;53.38;;
76439;SDS011;65274;44.982;20.060;2023-11-21T19:02:02;132.32;;;59.58;;
76439;SDS011;65274;44.982;20.060;2023-11-21T19:04:33;134.75;;;58.83;;
76439;SDS011;65274;44.982;20.060;2023-11-21T19:07:02;131.68;;;62.55;;
76439;SDS011;65274;44.982;20.060;2023-11-21T19:09:28;167.75;;;67.00;;
76439;SDS011;65274;44.982;20.060;2023-11-21T19:11:59;163.85;;;66.88;;
76439;SDS011;65274;44.982;20.060;2023-11-21T19:14:27;152.98;;;64.18;;
76439;SDS011;65274;44.982;20.060;2023-11-21T19:25:27;146.77;;;57.88;;
76439;SDS011;65274;44.982;20.060;2023-11-21T19:27:55;144.43;;;57.45;;
76439;SDS011;65274;44.982;20.060;2023-11-21T19:30:24;146.80;;;59.95;;
76439;SDS011;65274;44.982;20.060;2023-11-21T19:32:53;140.90;;;57.28;;
76439;SDS011;65274;44.982;20.060;2023-11-21T19:35:24;142.50;;;54.53;;
76439;SDS011;65274;44.982;20.060;2023-11-21T19:37:52;167.03;;;61.97;;
76439;SDS011;65274;44.982;20.060;2023-11-21T19:40:18;154.85;;;59.63;;
76439;SDS011;65274;44.982;20.060;2023-11-21T19:42:50;150.57;;;61.70;;
76439;SDS011;65274;44.982;20.060;2023-11-21T19:45:16;174.27;;;69.28;;